Leones, Argentina
Current Conditions -  °F | °C
As of 3:00 PM on Friday 24 Oct 2014 (Local Time) from SAAR Reporting Station
Clear Clear  
Wind Chill: 88°   Ceiling: Unl
Heat Index: 88°   Visibility: 6mi
Dew Point: 61°   Wind: 7mph
Humidity: 40%   Direction: 50°NE
Pressure: 29.91"   Gusts: NA
Location:  32.65°S, 62.3°W
Report Text: SAAR 241800Z 05006KT CAVOK 31/16 Q1013
Loading
Personal Weather Stations






























Interactive Weather Map
Tropical Storm Tracking
New forecast layout! Learn more

10-Day Weather Forecast

Advertisements
Track Severe Weather on mobile